To NAV CANADA Home Page Login to a new session Search on AWWS site Disclaimer Vers la page française équivalente Tips FAQ What's new on the site To the Forecasts and Observations / NOTAM section To "File a Flight Plan" website Publications and other links Update of the User's profile FIC Telephone Numbers My Weather Data Folder Route Weather Data Regional Weather Data Local Weather Data To the Forecasts and Observations / NOTAM section
Request Generated 10/05/2022 at 18:30:11 UTC . Weather information available at that time is displayed.

METAR/TAF

LONDON/ON    

METAR CYXU 051800Z 26003KT 240V320 15SM SCT240 22/08 A3007 RMK CI3 SLP185 DENSITY ALT 1800FT=
METAR CYXU 051700Z VRB02KT 15SM FEW240 21/08 A3008 RMK CI2 SLP191 DENSITY ALT 1700FT=
METAR CYXU 051600Z VRB03KT 15SM FEW220 19/05 A3009 RMK CI1 SLP194 DENSITY ALT 1500FT=

TAF CYXU 051740Z 0518/0618 VRB03KT P6SM FEW140
BECMG 0518/0519 27007KT
FM060300 24005KT P6SM BKN110
BECMG 0615/0616 24010KT
RMK NXT FCST BY 060000Z=
Your time UTC time
Weather data provided by Environment Canada and NAV CANADA